createdAt,value
2022-09-12T00:02:04.598Z,100871.09
2022-09-12T00:04:32.665Z,100865.00
2022-09-12T00:07:00.612Z,100857.91
2022-09-12T00:09:28.573Z,100850.69
2022-09-12T00:11:56.734Z,100852.38
2022-09-12T00:14:24.675Z,100860.53
2022-09-12T00:16:54.227Z,100855.50
2022-09-12T00:19:22.316Z,100853.34
2022-09-12T00:21:50.591Z,100860.00
2022-09-12T00:24:18.586Z,100854.75
2022-09-12T00:26:46.619Z,100857.41
2022-09-12T00:29:17.922Z,100860.50
2022-09-12T00:31:46.686Z,100858.81
2022-09-12T00:34:16.305Z,100844.97
2022-09-12T00:36:44.351Z,100856.31
2022-09-12T00:39:17.100Z,100847.09
2022-09-12T00:41:45.907Z,100847.88
2022-09-12T00:44:49.714Z,100850.19
2022-09-12T00:47:29.762Z,100853.31
2022-09-12T00:50:07.215Z,100847.47
2022-09-12T00:52:41.364Z,100855.63
2022-09-12T00:55:14.091Z,100845.81
2022-09-12T00:57:47.062Z,100848.72
2022-09-12T01:00:17.553Z,100847.09
2022-09-12T01:02:49.769Z,100834.94
2022-09-12T01:05:19.782Z,100834.56
2022-09-12T01:07:50.361Z,100835.41
2022-09-12T01:10:19.753Z,100830.97
2022-09-12T01:12:48.194Z,100821.97
2022-09-12T01:15:16.290Z,100822.66
2022-09-12T01:17:56.423Z,100823.50
2022-09-12T01:20:40.120Z,100819.94
2022-09-12T01:23:26.282Z,100813.19
2022-09-12T01:26:12.256Z,100826.41
2022-09-12T01:29:06.304Z,100813.47
2022-09-12T01:31:42.036Z,100805.09
2022-09-12T01:34:19.474Z,100808.03
2022-09-12T01:36:58.968Z,100798.38
2022-09-12T01:39:37.367Z,100794.16
2022-09-12T01:42:12.888Z,100803.22
2022-09-12T01:44:49.356Z,100795.22
2022-09-12T01:47:25.206Z,100801.69
2022-09-12T01:49:59.062Z,100797.72
2022-09-12T01:52:32.991Z,100790.16
2022-09-12T01:55:09.618Z,100785.09
2022-09-12T01:57:43.249Z,100791.81
2022-09-12T02:00:13.828Z,100796.63
2022-09-12T02:02:50.742Z,100795.59
2022-09-12T02:05:25.015Z,100786.28
2022-09-12T02:07:57.097Z,100782.75
2022-09-12T02:10:32.236Z,100781.69
2022-09-12T02:13:07.666Z,100773.34
2022-09-12T02:15:39.863Z,100783.25
2022-09-12T02:18:14.652Z,100785.09
2022-09-12T02:20:48.497Z,100779.28
2022-09-12T02:23:22.472Z,100786.38
2022-09-12T02:25:54.003Z,100779.75
2022-09-12T02:28:26.668Z,100772.44
2022-09-12T02:31:01.846Z,100766.38
2022-09-12T02:33:38.122Z,100764.47
2022-09-12T02:36:14.566Z,100764.00
2022-09-12T02:38:46.691Z,100762.13
2022-09-12T02:41:18.935Z,100754.19
2022-09-12T02:43:47.896Z,100756.50
2022-09-12T02:46:23.082Z,100747.03
2022-09-12T02:48:52.960Z,100733.84
2022-09-12T02:51:23.805Z,100738.03
2022-09-12T02:53:52.729Z,100731.13
2022-09-12T02:56:27.094Z,100730.66
2022-09-12T02:58:58.986Z,100735.88
2022-09-12T03:01:50.812Z,100730.84
2022-09-12T03:04:54.794Z,100729.19
2022-09-12T03:07:43.688Z,100721.41
2022-09-12T03:10:22.176Z,100716.34
2022-09-12T03:12:59.674Z,100714.28
2022-09-12T03:15:40.356Z,100712.78
2022-09-12T03:18:21.432Z,100708.84
2022-09-12T03:20:58.856Z,100705.69
2022-09-12T03:23:34.555Z,100703.75
2022-09-12T03:26:07.344Z,100706.88
2022-09-12T03:28:36.939Z,100691.25
2022-09-12T03:31:14.288Z,100693.50
2022-09-12T03:33:42.478Z,100690.16
2022-09-12T03:36:17.329Z,100681.53
2022-09-12T03:38:45.713Z,100682.31
2022-09-12T03:41:13.787Z,100677.34
2022-09-12T03:43:41.870Z,100681.28
2022-09-12T03:46:09.998Z,100678.56
2022-09-12T03:48:38.196Z,100689.06
2022-09-12T03:51:08.926Z,100682.78
2022-09-12T03:53:38.742Z,100680.25
2022-09-12T03:56:11.527Z,100680.50
2022-09-12T03:58:40.644Z,100671.94
2022-09-12T04:01:12.835Z,100679.88
2022-09-12T04:03:41.416Z,100678.63
2022-09-12T04:06:10.998Z,100673.84
2022-09-12T04:08:41.157Z,100679.47
2022-09-12T04:11:11.544Z,100677.63
2022-09-12T04:13:41.544Z,100672.81
2022-09-12T04:16:10.390Z,100668.22
2022-09-12T04:18:39.226Z,100669.72
2022-09-12T04:21:09.961Z,100673.34
2022-09-12T04:23:38.128Z,100673.81
2022-09-12T04:26:08.404Z,100672.75
2022-09-12T04:28:37.989Z,100673.81
2022-09-12T04:31:08.170Z,100687.66
2022-09-12T04:33:36.381Z,100678.00
2022-09-12T04:36:06.462Z,100668.75
2022-09-12T04:38:34.723Z,100654.78
2022-09-12T04:41:03.204Z,100664.25
2022-09-12T04:43:32.667Z,100658.81
2022-09-12T04:46:07.080Z,100667.31
2022-09-12T04:48:35.188Z,100667.97
2022-09-12T04:51:10.730Z,100655.25
2022-09-12T04:53:39.246Z,100657.09
2022-09-12T04:56:09.675Z,100655.41
2022-09-12T04:58:39.792Z,100662.34
2022-09-12T05:01:09.181Z,100660.47
2022-09-12T05:03:39.048Z,100667.38
2022-09-12T05:06:09.249Z,100669.00
2022-09-12T05:08:37.574Z,100666.94
2022-09-12T05:11:07.885Z,100659.44
2022-09-12T05:13:36.913Z,100662.16
2022-09-12T05:16:08.249Z,100659.63
2022-09-12T05:18:37.637Z,100665.53
2022-09-12T05:21:08.136Z,100665.72
2022-09-12T05:23:36.911Z,100662.16
2022-09-12T05:26:07.170Z,100666.41
2022-09-12T05:28:38.566Z,100658.25
2022-09-12T05:31:10.392Z,100664.31
2022-09-12T05:33:40.100Z,100661.41
2022-09-12T05:36:11.479Z,100660.09
2022-09-12T05:38:40.045Z,100665.16
2022-09-12T05:41:16.941Z,100673.56
2022-09-12T05:43:46.876Z,100660.22
2022-09-12T05:46:18.122Z,100661.03
2022-09-12T05:48:51.435Z,100661.84
2022-09-12T05:51:23.792Z,100658.09
2022-09-12T05:53:54.383Z,100657.25
2022-09-12T05:56:25.544Z,100666.06
2022-09-12T05:58:55.994Z,100665.47
2022-09-12T06:01:27.397Z,100662.56
2022-09-12T06:03:57.826Z,100656.28
2022-09-12T06:06:27.978Z,100664.03
2022-09-12T06:08:59.038Z,100658.09
2022-09-12T06:11:31.267Z,100655.47
2022-09-12T06:14:00.176Z,100653.16
2022-09-12T06:16:31.730Z,100664.50
2022-09-12T06:19:01.268Z,100670.19
2022-09-12T06:21:31.392Z,100662.06
2022-09-12T06:24:00.149Z,100660.84
2022-09-12T06:26:30.252Z,100672.56
2022-09-12T06:29:00.794Z,100676.63
2022-09-12T06:31:32.185Z,100677.28
2022-09-12T06:34:02.386Z,100678.75
2022-09-12T06:36:32.703Z,100684.84
2022-09-12T06:39:02.855Z,100683.22
2022-09-12T06:41:32.460Z,100677.81
2022-09-12T06:44:01.541Z,100679.94
2022-09-12T06:46:32.357Z,100678.88
2022-09-12T06:49:02.063Z,100672.88
2022-09-12T06:51:30.360Z,100660.81
2022-09-12T06:53:59.316Z,100661.63
2022-09-12T06:56:28.935Z,100663.53
2022-09-12T06:58:58.532Z,100655.00
2022-09-12T07:01:28.394Z,100664.22
2022-09-12T07:04:00.166Z,100662.56
2022-09-12T07:06:32.238Z,100658.84
2022-09-12T07:09:01.446Z,100658.47
2022-09-12T07:11:34.954Z,100654.69
2022-09-12T07:14:06.296Z,100652.66
2022-09-12T07:16:36.987Z,100666.28
2022-09-12T07:19:09.013Z,100659.78
2022-09-12T07:21:40.666Z,100657.31
2022-09-12T07:24:11.162Z,100663.41
2022-09-12T07:26:40.768Z,100652.56
2022-09-12T07:29:35.395Z,100651.75
2022-09-12T07:32:02.005Z,100656.13
2022-09-12T07:34:31.944Z,100647.78
2022-09-12T07:37:00.647Z,100645.72
2022-09-12T07:39:28.735Z,100654.50
2022-09-12T07:41:57.532Z,100638.56
2022-09-12T07:44:27.117Z,100643.63
2022-09-12T07:46:55.493Z,100644.03
2022-09-12T07:49:24.286Z,100648.47
2022-09-12T07:51:54.826Z,100648.25
2022-09-12T07:54:23.957Z,100644.91
2022-09-12T07:56:52.309Z,100651.41
2022-09-12T07:59:41.801Z,100644.47
2022-09-12T08:02:17.126Z,100647.41
2022-09-12T08:04:48.460Z,100650.13
2022-09-12T08:07:19.505Z,100644.47
2022-09-12T08:09:47.770Z,100639.84
2022-09-12T08:12:16.867Z,100641.91
2022-09-12T08:14:45.475Z,100634.78
2022-09-12T08:17:14.425Z,100631.00
2022-09-12T08:19:42.940Z,100631.00
2022-09-12T08:22:11.684Z,100623.59
2022-09-12T08:24:41.225Z,100629.66
2022-09-12T08:27:09.920Z,100622.25
2022-09-12T08:29:40.834Z,100621.44
2022-09-12T08:32:09.294Z,100622.22
2022-09-12T08:34:37.707Z,100635.81
2022-09-12T08:37:06.261Z,100629.09
2022-09-12T08:39:48.285Z,100636.59
2022-09-12T08:42:25.975Z,100636.19
2022-09-12T08:45:13.378Z,100644.59
2022-09-12T08:47:45.303Z,100646.00
2022-09-12T08:50:17.942Z,100645.72
2022-09-12T08:52:54.808Z,100645.78
2022-09-12T08:55:37.616Z,100648.06
2022-09-12T08:58:16.419Z,100644.94
2022-09-12T09:00:52.810Z,100641.56
2022-09-12T09:03:52.339Z,100640.72
2022-09-12T09:06:33.685Z,100639.91
2022-09-12T09:09:07.451Z,100648.31
2022-09-12T09:11:54.766Z,100644.53
2022-09-12T09:15:01.970Z,100639.28
2022-09-12T09:17:36.615Z,100645.53
2022-09-12T09:20:08.604Z,100642.16
2022-09-12T09:22:43.879Z,100647.00
2022-09-12T09:25:23.022Z,100656.63
2022-09-12T09:27:57.826Z,100650.31
2022-09-12T09:30:27.420Z,100653.19
2022-09-12T09:33:01.046Z,100653.19
2022-09-12T09:35:40.345Z,100647.81
2022-09-12T09:38:24.881Z,100634.53
2022-09-12T09:41:05.414Z,100636.06
2022-09-12T09:43:34.096Z,100639.38
2022-09-12T09:46:02.339Z,100650.13
2022-09-12T09:48:34.421Z,100644.53
2022-09-12T09:51:05.583Z,100638.47
2022-09-12T09:53:40.938Z,100641.84
2022-09-12T09:56:14.928Z,100636.31
2022-09-12T09:58:43.787Z,100636.28
2022-09-12T10:01:18.418Z,100632.91
2022-09-12T10:03:52.800Z,100631.78
2022-09-12T10:06:28.199Z,100631.59
2022-09-12T10:09:08.139Z,100634.00
2022-09-12T10:11:37.521Z,100629.88
2022-09-12T10:14:05.794Z,100635.00
2022-09-12T10:16:36.117Z,100634.06
2022-09-12T10:19:06.455Z,100636.44
2022-09-12T10:21:40.241Z,100638.13
2022-09-12T10:24:22.780Z,100642.19
2022-09-12T10:26:57.206Z,100647.22
2022-09-12T10:29:29.516Z,100648.66
2022-09-12T10:32:01.238Z,100647.53
2022-09-12T10:34:36.795Z,100644.41
2022-09-12T10:37:08.003Z,100657.88
2022-09-12T10:39:38.013Z,100656.22
2022-09-12T10:42:06.838Z,100649.25
2022-09-12T10:44:36.222Z,100645.50
2022-09-12T10:47:22.837Z,100642.03
2022-09-12T10:49:52.791Z,100635.16
2022-09-12T10:52:24.602Z,100641.31
2022-09-12T10:54:53.240Z,100641.19
2022-09-12T10:57:51.941Z,100643.41
2022-09-12T11:00:27.749Z,100638.38
2022-09-12T11:03:07.093Z,100640.31
2022-09-12T11:05:54.920Z,100651.88
2022-09-12T11:08:47.124Z,100635.72
2022-09-12T11:11:41.716Z,100644.41
2022-09-12T11:14:20.443Z,100652.34
2022-09-12T11:16:56.673Z,100645.41
2022-09-12T11:19:54.032Z,100646.66
2022-09-12T11:22:37.845Z,100652.44
2022-09-12T11:25:19.402Z,100641.56
2022-09-12T11:28:16.578Z,100639.97
2022-09-12T11:30:57.544Z,100646.94
2022-09-12T11:33:43.984Z,100639.28
2022-09-12T11:36:25.095Z,100649.00
2022-09-12T11:39:03.423Z,100649.91
2022-09-12T11:41:36.358Z,100644.38
2022-09-12T11:44:14.722Z,100640.38
2022-09-12T11:46:48.770Z,100637.47
2022-09-12T11:49:27.561Z,100641.94
2022-09-12T11:51:59.805Z,100634.75
2022-09-12T11:54:34.534Z,100649.16
2022-09-12T11:57:12.960Z,100639.84
2022-09-12T11:59:46.957Z,100632.53
2022-09-12T12:02:23.524Z,100637.50
2022-09-12T12:05:04.023Z,100635.31
2022-09-12T12:07:45.608Z,100625.69
2022-09-12T12:10:30.567Z,100633.41
2022-09-12T12:13:00.473Z,100625.97
2022-09-12T12:15:29.611Z,100628.72
2022-09-12T12:18:07.256Z,100629.03
2022-09-12T12:20:36.466Z,100633.91
2022-09-12T12:23:05.187Z,100632.31
2022-09-12T12:25:53.819Z,100632.47
2022-09-12T12:28:59.669Z,100634.72
2022-09-12T12:31:28.067Z,100636.69
2022-09-12T12:34:28.560Z,100633.06
2022-09-12T12:36:56.847Z,100627.81
2022-09-12T12:40:04.962Z,100625.75
2022-09-12T12:43:13.011Z,100630.38
2022-09-12T12:46:14.042Z,100629.75
2022-09-12T12:49:05.633Z,100631.84
2022-09-12T12:51:51.486Z,100625.38
2022-09-12T12:54:50.417Z,100620.69
2022-09-12T12:57:24.628Z,100619.38
2022-09-12T12:59:55.283Z,100615.00
2022-09-12T13:02:31.197Z,100616.16
2022-09-12T13:05:02.676Z,100613.81
2022-09-12T13:07:35.284Z,100613.50
2022-09-12T13:10:04.870Z,100616.38
2022-09-12T13:12:36.802Z,100617.13
2022-09-12T13:15:27.099Z,100608.22
2022-09-12T13:18:03.606Z,100612.94
2022-09-12T13:20:46.224Z,100601.03
2022-09-12T13:23:23.872Z,100594.09
2022-09-12T13:25:56.400Z,100594.38
2022-09-12T13:28:26.678Z,100587.44
2022-09-12T13:31:02.012Z,100595.78
2022-09-12T13:33:44.400Z,100591.03
2022-09-12T13:36:28.476Z,100595.47
2022-09-12T13:39:11.504Z,100579.44
2022-09-12T13:42:04.568Z,100585.03
2022-09-12T13:44:39.522Z,100580.13
2022-09-12T13:47:07.753Z,100588.38
2022-09-12T13:49:40.104Z,100585.78
2022-09-12T13:52:11.423Z,100588.41
2022-09-12T13:54:40.486Z,100583.81
2022-09-12T13:57:08.762Z,100587.16
2022-09-12T13:59:41.238Z,100587.50
2022-09-12T14:02:21.220Z,100580.16
2022-09-12T14:05:10.567Z,100580.34
2022-09-12T14:07:55.256Z,100588.22
2022-09-12T14:10:31.971Z,100574.19
2022-09-12T14:13:01.393Z,100572.81
2022-09-12T14:15:32.844Z,100561.44
2022-09-12T14:18:04.013Z,100554.97
2022-09-12T14:20:38.723Z,100544.84
2022-09-12T14:23:22.830Z,100537.34
2022-09-12T14:25:52.389Z,100546.44
2022-09-12T14:28:24.297Z,100551.09
2022-09-12T14:31:07.979Z,100543.75
2022-09-12T14:33:51.384Z,100551.56
2022-09-12T14:36:25.980Z,100551.41
2022-09-12T14:38:57.410Z,100554.03
2022-09-12T14:41:29.928Z,100565.69
2022-09-12T14:44:06.047Z,100557.78
2022-09-12T14:46:36.652Z,100557.09
2022-09-12T14:49:11.419Z,100555.41
2022-09-12T14:51:49.378Z,100546.25
2022-09-12T14:54:46.493Z,100552.00
2022-09-12T14:57:39.778Z,100550.47
2022-09-12T15:00:21.142Z,100546.91
2022-09-12T15:02:54.745Z,100542.22
2022-09-12T15:05:29.761Z,100550.34
2022-09-12T15:08:04.022Z,100552.25
2022-09-12T15:10:35.762Z,100550.25
2022-09-12T15:13:19.504Z,100545.25
2022-09-12T15:15:53.253Z,100540.47
2022-09-12T15:18:31.688Z,100532.16
2022-09-12T15:21:09.239Z,100534.31
2022-09-12T15:23:44.146Z,100538.31
2022-09-12T15:26:15.331Z,100532.13
2022-09-12T15:28:44.171Z,100531.28
2022-09-12T15:31:20.619Z,100526.13
2022-09-12T15:33:49.113Z,100523.97
2022-09-12T15:36:20.400Z,100531.16
2022-09-12T15:38:51.463Z,100522.28
2022-09-12T15:41:21.922Z,100521.81
2022-09-12T15:43:51.416Z,100523.97
2022-09-12T15:46:46.198Z,100515.97
2022-09-12T15:49:15.687Z,100507.97
2022-09-12T15:51:44.240Z,100509.28
2022-09-12T15:54:16.308Z,100516.13
2022-09-12T15:56:44.591Z,100507.31
2022-09-12T15:59:13.758Z,100506.72
2022-09-12T16:01:41.957Z,100503.88
2022-09-12T16:04:22.415Z,100504.44
2022-09-12T16:06:59.040Z,100492.75
2022-09-12T16:09:31.022Z,100501.56
2022-09-12T16:12:01.700Z,100500.16
2022-09-12T16:14:32.833Z,100497.91
2022-09-12T16:17:20.361Z,100486.47
2022-09-12T16:19:48.537Z,100480.59
2022-09-12T16:22:16.769Z,100474.53
2022-09-12T16:24:46.500Z,100476.75
2022-09-12T16:27:14.759Z,100476.53
2022-09-12T16:29:44.827Z,100471.88
2022-09-12T16:32:12.997Z,100467.09
2022-09-12T16:34:41.545Z,100467.69
2022-09-12T16:37:09.631Z,100468.41
2022-09-12T16:39:38.172Z,100468.09
2022-09-12T16:42:08.518Z,100474.91
2022-09-12T16:44:37.290Z,100469.59
2022-09-12T16:47:05.510Z,100469.03
2022-09-12T16:49:34.679Z,100477.66
2022-09-12T16:52:03.278Z,100481.75
2022-09-12T16:54:31.564Z,100481.28
2022-09-12T16:57:00.735Z,100476.75
2022-09-12T16:59:31.162Z,100474.84
2022-09-12T17:02:02.895Z,100466.19
2022-09-12T17:04:31.451Z,100478.59
2022-09-12T17:07:00.779Z,100477.41
2022-09-12T17:09:29.667Z,100479.13
2022-09-12T17:11:58.607Z,100486.72
2022-09-12T17:14:59.907Z,100486.13
2022-09-12T17:17:29.722Z,100493.41
2022-09-12T17:19:58.123Z,100497.22
2022-09-12T17:22:26.343Z,100488.97
2022-09-12T17:24:55.632Z,100491.59
2022-09-12T17:27:46.071Z,100491.81
2022-09-12T17:30:14.901Z,100493.94
2022-09-12T17:32:44.862Z,100493.66
2022-09-12T17:35:13.440Z,100484.38
2022-09-12T17:37:42.671Z,100494.63
2022-09-12T17:40:12.316Z,100501.63
2022-09-12T17:42:41.041Z,100504.34
2022-09-12T17:45:17.822Z,100496.19
2022-09-12T17:47:55.305Z,100505.13
2022-09-12T17:50:32.082Z,100498.38
2022-09-12T17:53:00.988Z,100499.84
2022-09-12T17:55:32.142Z,100490.63
2022-09-12T17:58:01.702Z,100488.41
2022-09-12T18:03:39.257Z,100480.25
2022-09-12T18:06:07.879Z,100482.59
2022-09-12T18:08:36.162Z,100478.88
2022-09-12T18:11:05.818Z,100478.09
2022-09-12T18:13:34.265Z,100483.03
2022-09-12T18:16:08.343Z,100472.34
2022-09-12T18:18:38.719Z,100468.38
2022-09-12T18:21:10.044Z,100466.56
2022-09-12T18:23:39.422Z,100461.00
2022-09-12T18:26:10.104Z,100450.94
2022-09-12T18:28:40.400Z,100455.34
2022-09-12T18:31:12.953Z,100455.19
2022-09-12T18:33:43.083Z,100454.63
2022-09-12T18:36:13.594Z,100459.53
2022-09-12T18:38:44.363Z,100459.19
2022-09-12T18:41:14.830Z,100459.22
2022-09-12T18:43:43.588Z,100465.31
2022-09-12T18:46:14.198Z,100459.25
2022-09-12T18:48:44.875Z,100462.72
2022-09-12T18:51:15.935Z,100477.41
2022-09-12T18:54:37.607Z,100483.53
2022-09-12T18:57:05.869Z,100488.81
2022-09-12T18:59:34.147Z,100492.63
2022-09-12T19:02:02.593Z,100492.19
2022-09-12T19:04:33.012Z,100486.75
2022-09-12T19:07:01.719Z,100491.19
2022-09-12T19:09:29.883Z,100487.22
2022-09-12T19:11:57.902Z,100482.47
2022-09-12T19:14:28.341Z,100478.09
2022-09-12T19:16:56.504Z,100473.09
2022-09-12T19:20:06.481Z,100469.31
2022-09-12T19:22:36.069Z,100477.75
2022-09-12T19:25:04.341Z,100491.44
2022-09-12T19:27:32.430Z,100489.34
2022-09-12T19:30:00.570Z,100500.88
2022-09-12T19:32:28.540Z,100505.53
2022-09-12T19:34:56.852Z,100522.09
2022-09-12T19:37:25.303Z,100526.53
2022-09-12T19:39:55.004Z,100540.38
2022-09-12T19:42:23.391Z,100530.09
2022-09-12T19:44:55.908Z,100537.44
2022-09-12T19:47:25.300Z,100552.13
2022-09-12T19:49:54.840Z,100558.22
2022-09-12T19:52:23.560Z,100562.41
2022-09-12T19:54:51.760Z,100559.91
2022-09-12T19:57:21.342Z,100563.69
2022-09-12T19:59:49.354Z,100556.34
2022-09-12T20:02:18.611Z,100560.53
2022-09-12T20:04:47.619Z,100562.25
2022-09-12T20:07:15.880Z,100554.69
2022-09-12T20:09:44.018Z,100559.75
2022-09-12T20:12:12.117Z,100567.28
2022-09-12T20:14:41.831Z,100578.22
2022-09-12T20:17:09.902Z,100574.41
2022-09-12T20:19:38.120Z,100586.59
2022-09-12T20:22:06.415Z,100594.16
2022-09-12T20:24:34.453Z,100595.59
2022-09-12T20:27:02.396Z,100607.97
2022-09-12T20:29:30.668Z,100607.38
2022-09-12T20:32:00.273Z,100612.19
2022-09-12T20:34:28.399Z,100610.94
2022-09-12T20:36:56.457Z,100609.03
2022-09-12T20:39:24.978Z,100605.88
2022-09-12T20:41:52.972Z,100596.66
2022-09-12T20:44:21.465Z,100597.28
2022-09-12T20:46:49.570Z,100600.63
2022-09-12T20:49:19.258Z,100612.38
2022-09-12T20:51:48.396Z,100614.44
2022-09-12T20:54:16.605Z,100619.69
2022-09-12T20:56:44.697Z,100618.03
2022-09-12T20:59:13.369Z,100615.09
2022-09-12T21:01:41.598Z,100618.44
2022-09-12T21:04:14.304Z,100616.53
2022-09-12T21:06:44.561Z,100619.22
2022-09-12T21:09:12.846Z,100623.00
2022-09-12T21:11:40.810Z,100615.38
2022-09-12T21:14:08.923Z,100620.06
2022-09-12T21:16:38.780Z,100627.31
2022-09-12T21:19:07.549Z,100612.66
2022-09-12T21:21:35.651Z,100619.59
2022-09-12T21:24:05.722Z,100622.09
2022-09-12T21:26:34.274Z,100611.63
2022-09-12T21:29:02.746Z,100617.50
2022-09-12T21:31:30.848Z,100617.13
2022-09-12T21:33:59.070Z,100614.63
2022-09-12T21:36:27.541Z,100615.22
2022-09-12T21:38:59.026Z,100616.28
2022-09-12T21:41:28.941Z,100617.97
2022-09-12T21:43:57.046Z,100611.50
2022-09-12T21:46:25.193Z,100610.88
2022-09-12T21:48:53.273Z,100597.47
2022-09-12T21:51:21.360Z,100598.31
2022-09-12T21:53:49.575Z,100593.06
2022-09-12T21:56:17.772Z,100593.06
2022-09-12T21:58:47.570Z,100590.78
2022-09-12T22:01:15.644Z,100595.38
2022-09-12T22:03:44.957Z,100598.94
2022-09-12T22:06:14.251Z,100596.22
2022-09-12T22:08:42.426Z,100594.78
2022-09-12T22:11:11.082Z,100594.94
2022-09-12T22:13:40.718Z,100589.31
2022-09-12T22:16:10.648Z,100601.69
2022-09-12T22:18:39.567Z,100603.34
2022-09-12T22:21:09.527Z,100602.28
2022-09-12T22:23:54.761Z,100593.06
2022-09-12T22:26:22.935Z,100591.81
2022-09-12T22:28:51.770Z,100595.19
2022-09-12T22:31:21.847Z,100585.75
2022-09-12T22:33:51.548Z,100583.03
2022-09-12T22:36:19.612Z,100578.63
2022-09-12T22:38:47.721Z,100576.53
2022-09-12T22:41:16.035Z,100583.44
2022-09-12T22:43:44.086Z,100574.63
2022-09-12T22:46:13.365Z,100572.75
2022-09-12T22:48:43.400Z,100578.19
2022-09-12T22:51:11.902Z,100569.59
2022-09-12T22:53:40.147Z,100578.00
2022-09-12T22:56:09.071Z,100572.97
2022-09-12T22:58:38.366Z,100579.03
2022-09-12T23:01:07.803Z,100571.69
2022-09-12T23:03:36.548Z,100557.84
2022-09-12T23:06:06.799Z,100571.47
2022-09-12T23:08:35.959Z,100561.44
2022-09-12T23:11:04.699Z,100562.69
2022-09-12T23:13:33.116Z,100561.22
2022-09-12T23:16:02.417Z,100548.63
2022-09-12T23:18:30.586Z,100561.22
2022-09-12T23:21:00.208Z,100556.78
2022-09-12T23:23:30.706Z,100554.31
2022-09-12T23:26:07.062Z,100555.56
2022-09-12T23:28:35.907Z,100563.31
2022-09-12T23:31:04.769Z,100567.72
2022-09-12T23:33:33.835Z,100563.31
2022-09-12T23:36:03.083Z,100563.53
2022-09-12T23:38:33.828Z,100554.09
2022-09-12T23:41:03.377Z,100554.72
2022-09-12T23:43:32.131Z,100550.94
2022-09-12T23:46:00.240Z,100546.31
2022-09-12T23:48:28.574Z,100544.66
2022-09-12T23:50:56.536Z,100544.66
2022-09-12T23:53:25.323Z,100538.34
2022-09-12T23:55:55.247Z,100555.53
2022-09-12T23:58:23.425Z,100548.00
